createdAt,value
2024-05-09T00:01:42.386Z,10.80
2024-05-09T00:04:12.899Z,10.80
2024-05-09T00:06:43.354Z,10.80
2024-05-09T00:09:14.099Z,10.70
2024-05-09T00:11:49.992Z,10.70
2024-05-09T00:14:20.483Z,10.60
2024-05-09T00:16:51.287Z,10.60
2024-05-09T00:19:24.826Z,10.60
2024-05-09T00:21:55.694Z,10.50
2024-05-09T00:24:26.022Z,10.50
2024-05-09T00:26:59.094Z,10.40
2024-05-09T00:29:31.682Z,10.50
2024-05-09T00:32:02.203Z,10.40
2024-05-09T00:34:32.752Z,10.30
2024-05-09T00:37:03.316Z,10.30
2024-05-09T00:39:36.088Z,10.30
2024-05-09T00:42:09.212Z,10.30
2024-05-09T00:44:39.894Z,10.20
2024-05-09T00:47:11.541Z,10.20
2024-05-09T00:49:42.550Z,10.20
2024-05-09T00:52:13.351Z,10.20
2024-05-09T00:54:43.761Z,10.10
2024-05-09T00:57:17.172Z,10.00
2024-05-09T00:59:47.672Z,10.00
2024-05-09T01:02:20.061Z,9.90
2024-05-09T01:04:50.708Z,9.80
2024-05-09T01:07:21.136Z,9.70
2024-05-09T01:09:53.749Z,9.80
2024-05-09T01:12:27.563Z,9.80
2024-05-09T01:14:58.095Z,9.80
2024-05-09T01:17:31.358Z,9.80
2024-05-09T01:20:01.945Z,9.80
2024-05-09T01:22:33.374Z,9.70
2024-05-09T01:25:06.745Z,9.70
2024-05-09T01:27:37.157Z,9.70
2024-05-09T01:30:11.946Z,9.70
2024-05-09T01:32:45.265Z,9.70
2024-05-09T01:35:16.054Z,9.70
2024-05-09T01:37:46.588Z,9.70
2024-05-09T01:40:28.687Z,9.50
2024-05-09T01:43:06.179Z,9.40
2024-05-09T01:45:36.699Z,9.40
2024-05-09T01:48:08.138Z,9.30
2024-05-09T01:50:41.740Z,9.40
2024-05-09T01:53:15.321Z,9.30
2024-05-09T01:55:48.612Z,9.30
2024-05-09T01:58:19.586Z,9.30
2024-05-09T02:00:50.066Z,9.30
2024-05-09T02:03:23.413Z,9.20
2024-05-09T02:05:53.829Z,9.10
2024-05-09T02:08:24.945Z,9.10
2024-05-09T02:10:58.151Z,9.00
2024-05-09T02:13:28.574Z,9.10
2024-05-09T02:15:59.393Z,9.10
2024-05-09T02:18:29.888Z,9.10
2024-05-09T02:21:00.500Z,9.10
2024-05-09T02:23:31.067Z,9.00
2024-05-09T02:26:04.197Z,9.00
2024-05-09T02:28:34.568Z,9.00
2024-05-09T02:31:04.967Z,9.00
2024-05-09T02:33:37.862Z,8.90
2024-05-09T02:36:10.444Z,8.90
2024-05-09T02:38:39.056Z,8.70
2024-05-09T02:41:14.841Z,8.70
2024-05-09T02:43:42.582Z,8.70
2024-05-09T02:46:12.961Z,8.60
2024-05-09T02:48:43.474Z,8.60
2024-05-09T02:51:14.460Z,8.50
2024-05-09T02:53:44.889Z,8.40
2024-05-09T02:56:15.407Z,8.40
2024-05-09T02:58:45.835Z,8.30
2024-05-09T03:01:13.797Z,8.30
2024-05-09T03:03:48.588Z,8.30
2024-05-09T03:06:16.463Z,8.20
2024-05-09T03:08:48.393Z,8.20
2024-05-09T03:11:25.741Z,8.20
2024-05-09T03:13:58.693Z,8.20
2024-05-09T03:16:26.412Z,8.30
2024-05-09T03:18:57.487Z,8.30
2024-05-09T03:21:27.596Z,8.20
2024-05-09T03:24:01.389Z,8.20
2024-05-09T03:26:31.824Z,8.30
2024-05-09T03:29:04.837Z,8.20
2024-05-09T03:31:32.626Z,8.20
2024-05-09T03:34:05.477Z,8.20
2024-05-09T03:36:33.378Z,8.10
2024-05-09T03:39:03.704Z,8.10
2024-05-09T03:41:36.848Z,8.00
2024-05-09T03:44:05.400Z,8.00
2024-05-09T03:46:40.114Z,7.90
2024-05-09T03:49:08.377Z,8.00
2024-05-09T03:51:41.161Z,7.90
2024-05-09T03:54:11.079Z,7.90
2024-05-09T03:56:44.173Z,7.90
2024-05-09T03:59:12.019Z,8.00
2024-05-09T04:01:42.634Z,8.10
2024-05-09T04:04:10.536Z,8.10
2024-05-09T04:06:43.225Z,8.20
2024-05-09T04:09:11.027Z,8.30
2024-05-09T04:11:44.234Z,8.30
2024-05-09T04:14:12.063Z,8.30
2024-05-09T04:16:44.886Z,8.40
2024-05-09T04:19:12.700Z,8.60
2024-05-09T04:21:45.619Z,8.60
2024-05-09T04:24:13.353Z,8.70
2024-05-09T04:26:48.837Z,8.80
2024-05-09T04:29:16.632Z,8.80
2024-05-09T04:31:49.273Z,8.90
2024-05-09T04:34:17.358Z,8.90
2024-05-09T04:36:47.875Z,9.00
2024-05-09T04:39:15.656Z,9.10
2024-05-09T04:41:50.892Z,9.30
2024-05-09T04:44:18.634Z,9.40
2024-05-09T04:46:50.404Z,9.50
2024-05-09T04:49:18.676Z,9.70
2024-05-09T04:51:49.573Z,9.80
2024-05-09T04:54:29.535Z,9.90
2024-05-09T04:57:07.578Z,10.10
2024-05-09T04:59:36.570Z,10.20
2024-05-09T05:02:07.893Z,10.30
2024-05-09T05:04:35.987Z,10.50
2024-05-09T05:07:06.941Z,10.60
2024-05-09T05:09:34.871Z,10.70
2024-05-09T05:12:29.279Z,10.80
2024-05-09T05:14:57.281Z,10.90
2024-05-09T05:17:28.260Z,11.10
2024-05-09T05:19:56.965Z,11.30
2024-05-09T05:22:27.600Z,11.40
2024-05-09T05:24:57.473Z,11.60
2024-05-09T05:27:31.092Z,11.80
2024-05-09T05:29:58.858Z,11.90
2024-05-09T05:32:29.440Z,12.00
2024-05-09T05:35:00.013Z,12.20
2024-05-09T05:37:30.436Z,12.40
2024-05-09T05:39:58.426Z,12.60
2024-05-09T05:42:31.633Z,12.80
2024-05-09T05:44:59.486Z,12.90
2024-05-09T05:47:30.113Z,13.00
2024-05-09T05:49:57.987Z,13.10
2024-05-09T05:52:28.418Z,13.30
2024-05-09T05:54:56.179Z,13.50
2024-05-09T05:57:26.627Z,13.60
2024-05-09T05:59:57.197Z,13.80
2024-05-09T06:02:27.702Z,14.10
2024-05-09T06:04:55.715Z,14.20
2024-05-09T06:07:26.175Z,14.50
2024-05-09T06:09:54.031Z,14.70
2024-05-09T06:12:26.995Z,14.90
2024-05-09T06:14:57.439Z,15.10
2024-05-09T06:17:27.897Z,15.30
2024-05-09T06:19:55.936Z,15.50
2024-05-09T06:22:26.763Z,15.70
2024-05-09T06:24:54.527Z,16.00
2024-05-09T06:27:25.102Z,16.20
2024-05-09T06:29:52.881Z,16.40
2024-05-09T06:32:28.244Z,16.70
2024-05-09T06:34:58.310Z,17.00
2024-05-09T06:37:28.759Z,16.80
2024-05-09T06:39:58.659Z,16.50
2024-05-09T06:42:29.122Z,16.40
2024-05-09T06:44:57.125Z,16.40
2024-05-09T06:47:30.387Z,16.50
2024-05-09T06:49:58.306Z,16.50
2024-05-09T06:52:28.694Z,16.70
2024-05-09T06:54:56.474Z,16.90
2024-05-09T06:57:26.901Z,17.20
2024-05-09T06:59:56.640Z,17.30
2024-05-09T07:02:30.111Z,17.50
2024-05-09T07:04:57.956Z,17.60
2024-05-09T07:07:28.384Z,17.70
2024-05-09T07:09:56.228Z,17.90
2024-05-09T07:12:28.936Z,17.90
2024-05-09T07:14:57.290Z,17.90
2024-05-09T07:17:30.497Z,18.10
2024-05-09T07:19:58.647Z,18.20
2024-05-09T07:22:29.687Z,18.50
2024-05-09T07:24:57.383Z,18.70
2024-05-09T07:27:30.026Z,18.90
2024-05-09T07:30:00.960Z,19.10
2024-05-09T07:32:34.176Z,19.40
2024-05-09T07:35:05.046Z,19.40
2024-05-09T07:37:35.430Z,19.60
2024-05-09T07:40:07.714Z,19.90
2024-05-09T07:42:38.165Z,20.00
2024-05-09T07:45:24.236Z,19.90
2024-05-09T07:53:36.210Z,20.40
2024-05-09T07:55:55.740Z,20.60
2024-05-09T07:58:27.890Z,20.70
2024-05-09T08:00:58.590Z,20.70
2024-05-09T08:03:29.115Z,20.80
2024-05-09T08:05:59.605Z,20.90
2024-05-09T08:08:27.328Z,21.00
2024-05-09T08:10:57.886Z,20.90
2024-05-09T08:13:25.689Z,20.90
2024-05-09T08:15:56.099Z,21.10
2024-05-09T08:18:24.006Z,21.20
2024-05-09T08:20:59.599Z,21.30
2024-05-09T08:23:28.652Z,21.50
2024-05-09T08:25:59.155Z,21.80
2024-05-09T08:28:27.032Z,22.00
2024-05-09T08:31:01.642Z,22.20
2024-05-09T08:33:32.404Z,22.30
2024-05-09T08:36:08.198Z,22.30
2024-05-09T08:38:38.424Z,22.40
2024-05-09T08:41:11.370Z,22.60
2024-05-09T08:43:44.444Z,22.60
2024-05-09T08:46:15.857Z,22.60
2024-05-09T08:48:45.794Z,22.80
2024-05-09T08:51:19.341Z,22.80
2024-05-09T08:53:47.174Z,22.90
2024-05-09T08:56:19.071Z,22.90
2024-05-09T08:58:49.363Z,23.00
2024-05-09T09:01:21.842Z,23.00
2024-05-09T09:03:53.601Z,23.20
2024-05-09T09:06:29.202Z,22.80
2024-05-09T09:08:59.006Z,22.50
2024-05-09T09:11:29.429Z,22.30
2024-05-09T09:13:57.193Z,22.10
2024-05-09T09:16:36.600Z,22.30
2024-05-09T09:19:05.030Z,22.50
2024-05-09T09:21:40.695Z,22.80
2024-05-09T09:24:10.023Z,22.90
2024-05-09T09:26:42.983Z,23.10
2024-05-09T09:29:10.720Z,23.10
2024-05-09T09:31:42.234Z,23.30
2024-05-09T09:34:10.279Z,23.50
2024-05-09T09:36:47.362Z,23.60
2024-05-09T09:39:18.741Z,23.80
2024-05-09T09:41:51.424Z,23.70
2024-05-09T09:44:23.185Z,23.80
2024-05-09T09:46:54.344Z,24.00
2024-05-09T09:49:23.482Z,24.10
2024-05-09T09:51:57.590Z,24.30
2024-05-09T09:54:28.075Z,24.50
2024-05-09T09:56:59.342Z,24.70
2024-05-09T09:59:28.127Z,25.00
2024-05-09T10:02:01.021Z,25.10
2024-05-09T10:04:32.270Z,25.30
2024-05-09T10:07:11.211Z,25.40
2024-05-09T10:09:39.420Z,25.60
2024-05-09T10:12:14.260Z,25.30
2024-05-09T10:14:48.117Z,25.20
2024-05-09T10:17:18.980Z,25.30
2024-05-09T10:19:47.234Z,25.50
2024-05-09T10:22:30.980Z,25.80
2024-05-09T10:25:06.785Z,25.90
2024-05-09T10:27:37.642Z,26.00
2024-05-09T10:30:14.431Z,25.80
2024-05-09T10:32:48.358Z,25.90
2024-05-09T10:35:19.606Z,26.20
2024-05-09T10:37:53.631Z,26.40
2024-05-09T10:40:29.351Z,26.60
2024-05-09T10:43:05.832Z,26.80
2024-05-09T10:45:38.778Z,26.90
2024-05-09T10:48:08.385Z,26.70
2024-05-09T10:50:43.810Z,26.70
2024-05-09T10:53:14.186Z,26.80
2024-05-09T10:55:47.055Z,27.00
2024-05-09T10:58:18.026Z,26.80
2024-05-09T11:00:52.023Z,26.60
2024-05-09T11:03:24.019Z,26.30
2024-05-09T11:05:55.484Z,26.00
2024-05-09T11:08:31.221Z,26.00
2024-05-09T11:11:03.132Z,25.80
2024-05-09T11:13:32.272Z,25.80
2024-05-09T11:16:03.893Z,25.80
2024-05-09T11:18:36.516Z,25.80
2024-05-09T11:21:15.416Z,25.90
2024-05-09T11:23:46.338Z,25.80
2024-05-09T11:26:19.522Z,25.50
2024-05-09T11:28:47.461Z,25.30
2024-05-09T11:31:18.074Z,25.20
2024-05-09T11:33:47.016Z,25.10
2024-05-09T11:36:18.158Z,25.00
2024-05-09T11:38:48.687Z,24.90
2024-05-09T11:41:22.061Z,24.80
2024-05-09T11:43:49.754Z,24.60
2024-05-09T11:46:20.377Z,24.50
2024-05-09T11:48:50.583Z,24.30
2024-05-09T11:51:21.400Z,24.40
2024-05-09T11:53:51.921Z,24.60
2024-05-09T11:56:22.381Z,24.60
2024-05-09T11:58:50.152Z,24.60
2024-05-09T12:01:25.115Z,24.60
2024-05-09T12:03:55.167Z,24.60
2024-05-09T12:06:25.740Z,24.50
2024-05-09T12:08:56.264Z,24.50
2024-05-09T12:11:26.732Z,24.30
2024-05-09T12:13:57.252Z,24.20
2024-05-09T12:16:27.319Z,24.20
2024-05-09T12:18:58.241Z,24.30
2024-05-09T12:21:26.125Z,24.40
2024-05-09T12:23:59.493Z,24.50
2024-05-09T12:26:28.554Z,24.50
2024-05-09T12:28:58.852Z,24.50
2024-05-09T12:31:29.125Z,24.40
2024-05-09T12:34:00.398Z,24.30
2024-05-09T12:36:28.572Z,24.20
2024-05-09T12:39:01.698Z,24.10
2024-05-09T12:41:29.423Z,24.00
2024-05-09T12:43:59.753Z,24.00
2024-05-09T12:46:27.499Z,24.10
2024-05-09T12:48:58.126Z,24.30
2024-05-09T12:51:26.906Z,24.50
2024-05-09T12:54:02.373Z,24.60
2024-05-09T12:56:30.046Z,24.70
2024-05-09T12:59:00.524Z,24.80
2024-05-09T13:01:28.301Z,24.80
2024-05-09T13:03:58.829Z,24.80
2024-05-09T13:06:26.743Z,24.70
2024-05-09T13:08:57.143Z,24.70
2024-05-09T13:11:27.576Z,24.60
2024-05-09T13:13:58.024Z,24.40
2024-05-09T13:16:25.879Z,24.20
2024-05-09T13:18:56.326Z,24.20
2024-05-09T13:21:24.077Z,24.30
2024-05-09T13:23:56.201Z,24.30
2024-05-09T13:26:27.322Z,24.10
2024-05-09T13:28:57.749Z,23.90
2024-05-09T13:31:27.834Z,23.90
2024-05-09T13:34:00.899Z,24.10
2024-05-09T13:36:28.846Z,24.10
2024-05-09T13:38:59.378Z,24.10
2024-05-09T13:41:29.883Z,24.00
2024-05-09T13:44:00.211Z,24.00
2024-05-09T13:46:27.952Z,23.80
2024-05-09T13:49:00.750Z,23.70
2024-05-09T13:51:28.574Z,23.70
2024-05-09T13:53:59.461Z,23.40
2024-05-09T13:56:29.835Z,23.30
2024-05-09T13:59:00.218Z,23.20
2024-05-09T14:01:27.974Z,23.00
2024-05-09T14:04:00.740Z,23.00
2024-05-09T14:06:28.712Z,22.90
2024-05-09T14:08:59.182Z,22.80
2024-05-09T14:11:29.576Z,22.80
2024-05-09T14:14:00.067Z,22.80
2024-05-09T14:16:29.924Z,22.80
2024-05-09T14:19:01.274Z,22.80
2024-05-09T14:21:31.089Z,22.80
2024-05-09T14:24:01.730Z,22.90
2024-05-09T14:26:32.188Z,23.00
2024-05-09T14:29:02.612Z,23.00
2024-05-09T14:31:30.529Z,23.10
2024-05-09T14:34:01.492Z,23.10
2024-05-09T14:36:29.469Z,23.10
2024-05-09T14:39:00.132Z,23.10
2024-05-09T14:41:27.847Z,23.00
2024-05-09T14:44:00.812Z,22.90
2024-05-09T14:46:28.656Z,22.90
2024-05-09T14:49:00.309Z,22.80
2024-05-09T14:51:28.122Z,22.70
2024-05-09T14:53:58.850Z,22.50
2024-05-09T14:56:26.660Z,22.50
2024-05-09T14:58:57.319Z,22.50
2024-05-09T15:01:31.064Z,22.60
2024-05-09T15:04:01.602Z,22.50
2024-05-09T15:06:29.605Z,22.40
2024-05-09T15:09:03.950Z,22.50
2024-05-09T15:11:31.645Z,22.50
2024-05-09T15:14:02.048Z,22.60
2024-05-09T15:16:32.621Z,22.60
2024-05-09T15:19:03.367Z,22.50
2024-05-09T15:21:31.306Z,22.40
2024-05-09T15:24:01.746Z,22.50
2024-05-09T15:26:29.453Z,22.50
2024-05-09T15:28:59.956Z,22.50
2024-05-09T15:31:27.714Z,22.50
2024-05-09T15:34:00.939Z,22.40
2024-05-09T15:36:28.845Z,22.40
2024-05-09T15:38:59.257Z,22.30
2024-05-09T15:41:27.037Z,22.20
2024-05-09T15:43:59.656Z,22.20
2024-05-09T15:46:27.614Z,22.10
2024-05-09T15:49:00.902Z,21.90
2024-05-09T15:51:28.944Z,21.80
2024-05-09T15:53:59.242Z,21.80
2024-05-09T15:56:27.325Z,21.70
2024-05-09T15:58:57.900Z,21.70
2024-05-09T16:01:25.705Z,21.50
2024-05-09T16:03:56.370Z,21.50
2024-05-09T16:06:26.869Z,21.60
2024-05-09T16:08:57.220Z,21.50
2024-05-09T16:11:24.934Z,21.50
2024-05-09T16:13:55.353Z,21.30
2024-05-09T16:16:23.256Z,21.20
2024-05-09T16:18:54.005Z,21.20
2024-05-09T16:21:21.755Z,21.10
2024-05-09T16:23:57.118Z,21.00
2024-05-09T16:26:24.859Z,21.00
2024-05-09T16:28:55.178Z,20.90
2024-05-09T16:31:25.443Z,20.80
2024-05-09T16:33:56.156Z,20.80
2024-05-09T16:36:26.675Z,20.70
2024-05-09T16:38:57.718Z,20.70
2024-05-09T16:41:28.202Z,20.70
2024-05-09T16:43:58.569Z,20.60
2024-05-09T16:46:28.227Z,20.60
2024-05-09T16:48:58.737Z,20.60
2024-05-09T16:51:28.710Z,20.50
2024-05-09T16:54:01.781Z,20.50
2024-05-09T16:56:29.566Z,20.50
2024-05-09T16:59:02.197Z,20.40
2024-05-09T17:01:30.888Z,20.30
2024-05-09T17:04:01.414Z,20.30
2024-05-09T17:06:29.561Z,20.30
2024-05-09T17:09:08.255Z,20.20
2024-05-09T17:11:42.099Z,20.30
2024-05-09T17:14:09.909Z,20.30
2024-05-09T17:16:40.356Z,20.30
2024-05-09T17:19:10.940Z,20.30
2024-05-09T17:21:38.806Z,20.30
2024-05-09T17:24:11.931Z,20.20
2024-05-09T17:26:39.717Z,20.10
2024-05-09T17:29:13.045Z,20.10
2024-05-09T17:31:40.880Z,20.00
2024-05-09T17:34:11.555Z,19.90
2024-05-09T17:36:39.601Z,19.80
2024-05-09T17:39:12.735Z,19.60
2024-05-09T17:41:40.440Z,19.50
2024-05-09T17:44:10.854Z,19.50
2024-05-09T17:46:38.901Z,19.40
2024-05-09T17:49:09.312Z,19.30
2024-05-09T17:51:37.238Z,19.30
2024-05-09T17:54:07.643Z,19.20
2024-05-09T17:56:37.974Z,19.30
2024-05-09T17:59:11.370Z,19.20
2024-05-09T18:01:39.459Z,19.10
2024-05-09T18:04:10.171Z,19.10
2024-05-09T18:06:38.119Z,19.00
2024-05-09T18:09:08.769Z,19.00
2024-05-09T18:11:40.676Z,19.00
2024-05-09T18:14:11.249Z,19.00
2024-05-09T18:16:38.991Z,18.90
2024-05-09T18:19:11.567Z,19.00
2024-05-09T18:21:39.448Z,18.90
2024-05-09T18:24:10.307Z,18.90
2024-05-09T18:26:41.410Z,18.90
2024-05-09T18:29:13.967Z,18.80
2024-05-09T18:31:42.333Z,18.80
2024-05-09T18:34:15.522Z,18.90
2024-05-09T18:36:46.939Z,18.70
2024-05-09T18:39:17.516Z,18.70
2024-05-09T18:41:47.903Z,18.70
2024-05-09T18:44:18.597Z,18.60
2024-05-09T18:46:48.706Z,18.70
2024-05-09T18:49:21.809Z,18.70
2024-05-09T18:51:49.740Z,18.70
2024-05-09T18:54:20.066Z,18.60
2024-05-09T18:56:50.443Z,18.60
2024-05-09T18:59:21.102Z,18.50
2024-05-09T19:01:49.124Z,18.50
2024-05-09T19:04:20.107Z,18.50
2024-05-09T19:06:48.264Z,18.50
2024-05-09T19:09:20.999Z,18.40
2024-05-09T19:11:51.473Z,18.40
2024-05-09T19:14:25.157Z,18.40
2024-05-09T19:16:53.036Z,18.30
2024-05-09T19:19:28.063Z,18.30
2024-05-09T19:21:58.532Z,18.20
2024-05-09T19:24:28.878Z,18.20
2024-05-09T19:26:59.410Z,18.20
2024-05-09T19:29:29.772Z,18.20
2024-05-09T19:31:57.474Z,18.10
2024-05-09T19:34:27.985Z,18.10
2024-05-09T19:36:55.905Z,18.00
2024-05-09T19:39:28.622Z,17.90
2024-05-09T19:41:59.021Z,17.90
2024-05-09T19:44:29.408Z,17.80
2024-05-09T19:46:57.079Z,17.80
2024-05-09T19:49:27.537Z,17.80
2024-05-09T19:51:55.364Z,17.70
2024-05-09T19:54:25.779Z,17.70
2024-05-09T19:56:54.034Z,17.60
2024-05-09T19:59:27.084Z,17.50
2024-05-09T20:01:54.890Z,17.50
2024-05-09T20:04:25.515Z,17.50
2024-05-09T20:06:53.670Z,17.50
2024-05-09T20:09:24.024Z,17.40
2024-05-09T20:11:51.830Z,17.40
2024-05-09T20:14:22.454Z,17.40
2024-05-09T20:16:52.833Z,17.40
2024-05-09T20:19:23.334Z,17.40
2024-05-09T20:21:51.131Z,17.30
2024-05-09T20:24:21.523Z,17.30
2024-05-09T20:26:51.354Z,17.30
2024-05-09T20:29:21.675Z,17.30
2024-05-09T20:31:52.144Z,17.20
2024-05-09T20:34:22.517Z,17.10
2024-05-09T20:36:50.270Z,17.10
2024-05-09T20:39:27.147Z,17.10
2024-05-09T20:41:55.186Z,17.00
2024-05-09T20:44:25.665Z,17.00
2024-05-09T20:46:56.019Z,17.00
2024-05-09T20:49:26.645Z,17.10
2024-05-09T20:51:54.514Z,17.10
2024-05-09T20:54:24.862Z,17.00
2024-05-09T20:56:54.847Z,17.10
2024-05-09T20:59:25.282Z,17.00
2024-05-09T21:01:55.801Z,17.00
2024-05-09T21:04:26.293Z,17.00
2024-05-09T21:06:54.240Z,16.90
2024-05-09T21:09:25.857Z,16.80
2024-05-09T21:11:53.573Z,16.90
2024-05-09T21:14:23.938Z,16.80
2024-05-09T21:16:54.400Z,16.80
2024-05-09T21:19:25.113Z,16.80
2024-05-09T21:21:53.473Z,16.80
2024-05-09T21:24:24.003Z,16.70
2024-05-09T21:26:54.207Z,16.70
2024-05-09T21:29:24.518Z,16.70
2024-05-09T21:31:54.923Z,16.60
2024-05-09T21:34:25.389Z,16.60
2024-05-09T21:36:53.110Z,16.60
2024-05-09T21:39:23.814Z,16.50
2024-05-09T21:41:51.835Z,16.50
2024-05-09T21:44:22.169Z,16.50
2024-05-09T21:46:49.905Z,16.50
2024-05-09T21:49:23.270Z,16.50
2024-05-09T21:51:50.984Z,16.50
2024-05-09T21:54:21.566Z,16.40
2024-05-09T21:56:49.327Z,16.40
2024-05-09T21:59:19.655Z,16.40
2024-05-09T22:01:47.527Z,16.40
2024-05-09T22:04:18.225Z,16.40
2024-05-09T22:06:48.684Z,16.30
2024-05-09T22:09:19.179Z,16.30
2024-05-09T22:11:52.032Z,16.30
2024-05-09T22:14:23.394Z,16.20
2024-05-09T22:16:51.227Z,16.10
2024-05-09T22:19:21.813Z,16.10
2024-05-09T22:21:52.227Z,16.10
2024-05-09T22:24:25.005Z,16.10
2024-05-09T22:26:55.218Z,16.10
2024-05-09T22:29:25.626Z,16.00
2024-05-09T22:31:53.317Z,15.90
2024-05-09T22:34:23.844Z,15.90
2024-05-09T22:36:57.370Z,15.90
2024-05-09T22:39:27.944Z,15.80
2024-05-09T22:41:55.632Z,15.70
2024-05-09T22:44:25.951Z,15.70
2024-05-09T22:46:53.718Z,15.70
2024-05-09T22:49:24.080Z,15.60
2024-05-09T22:51:51.830Z,15.60
2024-05-09T22:54:24.797Z,15.60
2024-05-09T22:56:52.606Z,15.50
2024-05-09T22:59:22.887Z,15.50
2024-05-09T23:01:50.714Z,15.50
2024-05-09T23:04:21.303Z,15.50
2024-05-09T23:06:51.591Z,15.50
2024-05-09T23:09:26.627Z,15.50
2024-05-09T23:11:55.109Z,15.50
2024-05-09T23:14:25.503Z,15.50
2024-05-09T23:16:55.674Z,15.40
2024-05-09T23:19:26.149Z,15.40
2024-05-09T23:21:53.902Z,15.30
2024-05-09T23:24:26.979Z,15.30
2024-05-09T23:26:54.652Z,15.20
2024-05-09T23:29:27.902Z,15.10
2024-05-09T23:31:55.622Z,15.10
2024-05-09T23:34:26.094Z,15.00
2024-05-09T23:36:53.874Z,15.00
2024-05-09T23:39:29.457Z,14.90
2024-05-09T23:41:57.168Z,15.00
2024-05-09T23:44:27.553Z,14.90
2024-05-09T23:46:55.307Z,14.90
2024-05-09T23:49:25.950Z,14.90
2024-05-09T23:51:53.721Z,14.80
2024-05-09T23:54:24.079Z,14.90
2024-05-09T23:56:54.435Z,14.80
2024-05-09T23:59:24.831Z,14.90
